createdAt,value
2022-12-31T00:02:14.391Z,100.00
2022-12-31T00:07:19.505Z,100.00
2022-12-31T00:12:25.521Z,100.00
2022-12-31T00:17:34.332Z,100.00
2022-12-31T00:22:39.223Z,100.00
2022-12-31T00:27:46.545Z,100.00
2022-12-31T00:32:54.626Z,100.00
2022-12-31T00:37:59.677Z,100.00
2022-12-31T00:43:06.820Z,100.00
2022-12-31T00:48:14.302Z,100.00
2022-12-31T00:53:19.242Z,100.00
2022-12-31T00:58:24.323Z,100.00
2022-12-31T01:03:31.857Z,100.00
2022-12-31T01:08:37.219Z,100.00
2022-12-31T01:13:42.304Z,100.00
2022-12-31T01:18:49.892Z,100.00
2022-12-31T01:23:55.003Z,100.00
2022-12-31T01:28:59.950Z,100.00
2022-12-31T01:34:08.407Z,100.00
2022-12-31T01:39:14.294Z,100.00
2022-12-31T01:44:54.196Z,100.00
2022-12-31T01:50:10.156Z,100.00
2022-12-31T01:55:19.855Z,100.00
2022-12-31T02:00:25.086Z,100.00
2022-12-31T02:05:38.770Z,100.00
2022-12-31T02:10:43.862Z,100.00
2022-12-31T02:16:01.256Z,100.00
2022-12-31T02:21:49.766Z,100.00
2022-12-31T02:27:01.602Z,100.00
2022-12-31T02:32:15.552Z,100.00
2022-12-31T02:37:23.969Z,100.00
2022-12-31T02:42:31.048Z,100.00
2022-12-31T02:47:53.286Z,100.00
2022-12-31T02:53:08.951Z,100.00
2022-12-31T02:58:20.863Z,100.00
2022-12-31T03:03:30.361Z,100.00
2022-12-31T03:08:55.399Z,100.00
2022-12-31T03:14:00.331Z,100.00
2022-12-31T03:19:20.384Z,100.00
2022-12-31T03:24:38.949Z,100.00
2022-12-31T03:29:44.539Z,100.00
2022-12-31T03:34:54.334Z,100.00
2022-12-31T03:39:59.599Z,100.00
2022-12-31T03:45:04.705Z,100.00
2022-12-31T03:50:14.982Z,100.00
2022-12-31T03:55:20.535Z,100.00
2022-12-31T04:00:27.970Z,100.00
2022-12-31T04:05:36.628Z,100.00
2022-12-31T04:10:41.924Z,100.00
2022-12-31T04:15:47.004Z,100.00
2022-12-31T04:20:54.476Z,100.00
2022-12-31T04:25:59.426Z,100.00
2022-12-31T04:31:04.544Z,100.00
2022-12-31T04:36:13.073Z,100.00
2022-12-31T04:41:21.165Z,100.00
2022-12-31T04:46:28.685Z,100.00
2022-12-31T04:51:38.748Z,100.00
2022-12-31T04:56:43.782Z,100.00
2022-12-31T05:01:48.791Z,100.00
2022-12-31T05:06:59.562Z,100.00
2022-12-31T05:12:04.771Z,100.00
2022-12-31T05:17:09.935Z,100.00
2022-12-31T05:22:35.098Z,100.00
2022-12-31T05:27:40.355Z,100.00
2022-12-31T05:32:45.619Z,100.00
2022-12-31T05:37:53.472Z,100.00
2022-12-31T05:42:58.398Z,100.00
2022-12-31T05:48:03.310Z,100.00
2022-12-31T05:53:10.929Z,100.00
2022-12-31T05:58:16.037Z,100.00
2022-12-31T06:03:21.162Z,100.00
2022-12-31T06:08:28.713Z,100.00
2022-12-31T06:13:33.834Z,100.00
2022-12-31T06:18:38.957Z,100.00
2022-12-31T06:23:46.576Z,100.00
2022-12-31T06:28:51.446Z,100.00
2022-12-31T06:33:56.431Z,100.00
2022-12-31T06:39:04.897Z,100.00
2022-12-31T06:44:09.868Z,100.00
2022-12-31T06:49:16.212Z,100.00
2022-12-31T06:54:23.941Z,100.00
2022-12-31T06:59:33.028Z,100.00
2022-12-31T07:05:17.520Z,100.00
2022-12-31T07:10:37.159Z,100.00
2022-12-31T07:15:56.889Z,100.00
2022-12-31T07:21:04.100Z,100.00
2022-12-31T07:26:20.708Z,100.00
2022-12-31T07:31:35.450Z,100.00
2022-12-31T07:37:05.849Z,100.00
2022-12-31T07:42:19.381Z,100.00
2022-12-31T07:47:28.409Z,100.00
2022-12-31T07:52:34.025Z,100.00
2022-12-31T07:57:50.703Z,100.00
2022-12-31T08:03:08.490Z,100.00
2022-12-31T08:08:25.341Z,100.00
2022-12-31T08:13:33.370Z,100.00
2022-12-31T08:18:38.876Z,100.00
2022-12-31T08:23:53.817Z,100.00
2022-12-31T08:29:13.243Z,100.00
2022-12-31T08:34:28.559Z,100.00
2022-12-31T08:39:47.041Z,100.00
2022-12-31T08:45:04.251Z,100.00
2022-12-31T08:50:16.191Z,100.00
2022-12-31T08:55:22.416Z,100.00
2022-12-31T09:00:31.346Z,100.00
2022-12-31T09:05:42.047Z,100.00
2022-12-31T09:10:54.658Z,99.92
2022-12-31T09:16:10.761Z,100.00
2022-12-31T09:21:18.700Z,99.57
2022-12-31T09:26:42.332Z,98.44
2022-12-31T09:31:56.894Z,98.45
2022-12-31T09:37:08.241Z,98.15
2022-12-31T09:42:52.279Z,99.07
2022-12-31T09:48:29.072Z,97.78
2022-12-31T09:53:47.913Z,96.85
2022-12-31T09:59:04.635Z,96.96
2022-12-31T10:04:47.420Z,96.57
2022-12-31T10:10:02.559Z,95.39
2022-12-31T10:15:51.405Z,94.54
2022-12-31T10:21:16.849Z,94.14
2022-12-31T10:26:49.834Z,93.99
2022-12-31T10:32:15.393Z,94.32
2022-12-31T10:37:27.837Z,93.20
2022-12-31T10:43:02.793Z,93.55
2022-12-31T10:48:41.019Z,92.59
2022-12-31T10:54:09.426Z,92.41
2022-12-31T10:59:44.505Z,92.53
2022-12-31T11:05:42.907Z,92.39
2022-12-31T11:11:14.909Z,92.99
2022-12-31T11:16:39.065Z,92.72
2022-12-31T11:21:56.086Z,92.75
2022-12-31T11:27:17.252Z,92.46
2022-12-31T11:32:40.141Z,93.36
2022-12-31T11:37:49.842Z,92.55
2022-12-31T11:43:01.505Z,92.36
2022-12-31T11:48:30.317Z,92.33
2022-12-31T11:53:57.518Z,92.18
2022-12-31T11:59:18.883Z,92.89
2022-12-31T12:04:24.832Z,91.92
2022-12-31T12:09:33.928Z,91.11
2022-12-31T12:14:44.004Z,91.21
2022-12-31T12:19:56.723Z,90.52
2022-12-31T12:25:08.661Z,89.13
2022-12-31T12:30:22.695Z,89.06
2022-12-31T12:35:30.601Z,88.79
2022-12-31T12:40:37.394Z,88.69
2022-12-31T12:45:52.187Z,88.58
2022-12-31T12:50:57.940Z,87.96
2022-12-31T12:56:15.413Z,88.10
2022-12-31T13:01:30.096Z,88.47
2022-12-31T13:06:48.228Z,88.75
2022-12-31T13:12:07.844Z,88.23
2022-12-31T13:17:36.904Z,88.69
2022-12-31T13:22:47.540Z,88.79
2022-12-31T13:27:55.046Z,89.68
2022-12-31T13:33:07.592Z,89.24
2022-12-31T13:38:20.024Z,89.06
2022-12-31T13:43:35.437Z,89.09
2022-12-31T13:48:50.312Z,88.11
2022-12-31T13:54:04.460Z,89.39
2022-12-31T13:59:17.927Z,89.33
2022-12-31T14:04:34.467Z,89.67
2022-12-31T14:09:39.799Z,89.80
2022-12-31T14:14:56.216Z,89.94
2022-12-31T14:20:21.038Z,89.95
2022-12-31T14:25:31.886Z,91.15
2022-12-31T14:30:44.128Z,90.73
2022-12-31T14:36:02.768Z,91.40
2022-12-31T14:41:24.049Z,90.96
2022-12-31T14:46:36.044Z,91.34
2022-12-31T14:51:43.633Z,90.47
2022-12-31T14:56:48.979Z,91.42
2022-12-31T15:01:54.114Z,90.87
2022-12-31T15:07:08.524Z,91.26
2022-12-31T15:12:33.204Z,91.66
2022-12-31T15:17:49.127Z,91.43
2022-12-31T15:22:57.813Z,90.54
2022-12-31T15:28:05.678Z,91.61
2022-12-31T15:33:19.757Z,91.27
2022-12-31T15:38:39.251Z,90.64
2022-12-31T15:43:49.793Z,90.16
2022-12-31T15:49:04.977Z,91.10
2022-12-31T15:54:27.189Z,91.22
2022-12-31T15:59:32.099Z,91.79
2022-12-31T16:04:41.419Z,91.83
2022-12-31T16:09:53.808Z,91.53
2022-12-31T16:15:01.299Z,91.93
2022-12-31T16:20:26.094Z,91.99
2022-12-31T16:25:35.451Z,91.38
2022-12-31T16:30:40.673Z,92.15
2022-12-31T16:35:45.907Z,91.42
2022-12-31T16:41:11.563Z,91.59
2022-12-31T16:46:21.276Z,91.57
2022-12-31T16:51:30.530Z,91.25
2022-12-31T16:56:44.889Z,91.37
2022-12-31T17:01:50.422Z,91.39
2022-12-31T17:06:55.552Z,91.24
2022-12-31T17:12:18.324Z,91.67
2022-12-31T17:17:27.971Z,91.78
2022-12-31T17:22:37.808Z,91.93
2022-12-31T17:27:56.371Z,91.86
2022-12-31T17:33:05.407Z,92.24
2022-12-31T17:38:34.313Z,92.11
2022-12-31T17:43:43.223Z,92.07
2022-12-31T17:48:52.918Z,90.96
2022-12-31T17:53:58.269Z,90.64
2022-12-31T17:59:09.000Z,90.86
2022-12-31T18:04:17.522Z,90.68
2022-12-31T18:09:25.063Z,90.98
2022-12-31T18:14:32.825Z,91.20
2022-12-31T18:20:03.656Z,91.17
2022-12-31T18:25:06.806Z,91.52
2022-12-31T18:30:23.344Z,91.37
2022-12-31T18:40:57.791Z,90.78
2022-12-31T18:46:09.851Z,91.00
2022-12-31T18:51:16.991Z,90.93
2022-12-31T18:56:25.263Z,90.29
2022-12-31T19:01:40.128Z,90.13
2022-12-31T19:06:45.819Z,89.77
2022-12-31T19:11:51.463Z,89.83
2022-12-31T19:22:11.425Z,90.44
2022-12-31T19:27:17.149Z,90.32
2022-12-31T19:32:25.158Z,93.89
2022-12-31T19:37:30.317Z,96.30
2022-12-31T19:42:35.797Z,98.72
2022-12-31T19:47:46.900Z,97.82
2022-12-31T19:52:54.833Z,95.37
2022-12-31T19:57:59.869Z,92.39
2022-12-31T20:03:09.664Z,89.57
2022-12-31T20:08:17.142Z,88.66
2022-12-31T20:13:25.639Z,87.41
2022-12-31T20:18:33.439Z,87.06
2022-12-31T20:23:38.817Z,86.73
2022-12-31T20:28:44.046Z,86.18
2022-12-31T20:33:53.748Z,87.20
2022-12-31T20:39:03.639Z,86.36
2022-12-31T20:44:10.322Z,85.22
2022-12-31T20:49:26.975Z,84.64
2022-12-31T20:54:46.277Z,83.64
2022-12-31T20:59:51.303Z,83.21
2022-12-31T21:04:59.058Z,82.27
2022-12-31T21:10:05.475Z,82.12
2022-12-31T21:15:14.148Z,82.12
2022-12-31T21:20:22.045Z,81.19
2022-12-31T21:25:29.256Z,81.48
2022-12-31T21:30:34.279Z,80.28
2022-12-31T21:35:48.378Z,79.25
2022-12-31T21:40:59.255Z,79.11
2022-12-31T21:46:05.279Z,79.69
2022-12-31T21:51:25.131Z,78.56
2022-12-31T21:56:34.258Z,77.50
2022-12-31T22:01:52.759Z,77.65
2022-12-31T22:07:01.509Z,77.05
2022-12-31T22:12:07.049Z,75.29
2022-12-31T22:17:12.084Z,73.73
2022-12-31T22:22:19.852Z,72.76
2022-12-31T22:27:29.081Z,72.76
2022-12-31T22:32:34.546Z,71.63
2022-12-31T22:38:02.421Z,70.95
2022-12-31T22:43:07.167Z,70.90
2022-12-31T22:48:12.092Z,70.98
2022-12-31T22:53:22.664Z,71.26
2022-12-31T22:58:28.904Z,71.58
2022-12-31T23:03:35.486Z,72.31
2022-12-31T23:09:03.676Z,72.82
2022-12-31T23:14:22.101Z,73.42
2022-12-31T23:19:39.516Z,73.91
2022-12-31T23:24:47.075Z,74.19
2022-12-31T23:29:52.144Z,75.47
2022-12-31T23:34:57.745Z,75.63
2022-12-31T23:40:05.327Z,76.39
2022-12-31T23:45:11.029Z,76.66
2022-12-31T23:50:16.218Z,76.61
2022-12-31T23:55:23.851Z,75.96
